sensor_id;sensor_type;location;lat;lon;timestamp;pressure;altitude;pressure_sealevel;temperature;humidity
48968;BME280;46511;53.148;8.204;2023-01-28T00:02:14;102976.84;;;4.14;67.70
48968;BME280;46511;53.148;8.204;2023-01-28T00:04:46;102978.56;;;4.06;66.96
48968;BME280;46511;53.148;8.204;2023-01-28T00:07:17;102980.13;;;3.76;67.29
48968;BME280;46511;53.148;8.204;2023-01-28T00:09:49;102974.19;;;4.03;67.93
48968;BME280;46511;53.148;8.204;2023-01-28T00:12:20;102975.06;;;4.05;68.28
48968;BME280;46511;53.148;8.204;2023-01-28T00:14:51;102972.38;;;3.96;69.47
48968;BME280;46511;53.148;8.204;2023-01-28T00:17:23;102977.56;;;3.81;69.37
48968;BME280;46511;53.148;8.204;2023-01-28T00:19:54;102963.59;;;3.94;69.54
48968;BME280;46511;53.148;8.204;2023-01-28T00:22:25;102969.56;;;3.67;69.11
48968;BME280;46511;53.148;8.204;2023-01-28T00:24:56;102971.38;;;3.71;68.42
48968;BME280;46511;53.148;8.204;2023-01-28T00:27:28;102959.97;;;3.70;68.77
48968;BME280;46511;53.148;8.204;2023-01-28T00:30:00;102957.34;;;3.72;67.84
48968;BME280;46511;53.148;8.204;2023-01-28T00:32:32;102958.09;;;3.57;68.26
48968;BME280;46511;53.148;8.204;2023-01-28T00:35:03;102957.28;;;3.63;67.64
48968;BME280;46511;53.148;8.204;2023-01-28T00:37:35;102954.59;;;3.52;67.03
48968;BME280;46511;53.148;8.204;2023-01-28T00:40:07;102970.34;;;3.52;67.64
48968;BME280;46511;53.148;8.204;2023-01-28T00:42:39;102964.22;;;3.55;68.52
48968;BME280;46511;53.148;8.204;2023-01-28T00:45:11;102967.81;;;3.64;68.55
48968;BME280;46511;53.148;8.204;2023-01-28T00:47:42;102973.06;;;3.69;68.37
48968;BME280;46511;53.148;8.204;2023-01-28T00:50:15;102966.09;;;3.71;67.42
48968;BME280;46511;53.148;8.204;2023-01-28T00:52:47;102968.75;;;3.76;68.00
48968;BME280;46511;53.148;8.204;2023-01-28T00:55:18;102969.63;;;3.75;67.62
48968;BME280;46511;53.148;8.204;2023-01-28T00:57:49;102979.31;;;3.83;66.67
48968;BME280;46511;53.148;8.204;2023-01-28T01:00:21;102974.94;;;3.82;67.31
48968;BME280;46511;53.148;8.204;2023-01-28T01:02:55;102967.81;;;3.64;68.37
48968;BME280;46511;53.148;8.204;2023-01-28T01:05:26;102977.44;;;3.67;69.24
48968;BME280;46511;53.148;8.204;2023-01-28T01:07:59;102970.44;;;3.67;70.76
48968;BME280;46511;53.148;8.204;2023-01-28T01:10:30;102969.63;;;3.73;71.68
48968;BME280;46511;53.148;8.204;2023-01-28T01:13:02;102966.06;;;3.65;70.99
48968;BME280;46511;53.148;8.204;2023-01-28T01:15:33;102967.72;;;3.51;70.15
48968;BME280;46511;53.148;8.204;2023-01-28T01:18:05;102975.75;;;3.70;70.25
48968;BME280;46511;53.148;8.204;2023-01-28T01:20:36;102972.19;;;3.62;71.30
48968;BME280;46511;53.148;8.204;2023-01-28T01:23:09;102975.63;;;3.58;70.99
48968;BME280;46511;53.148;8.204;2023-01-28T01:25:42;102977.91;;;3.14;68.51
48968;BME280;46511;53.148;8.204;2023-01-28T01:28:14;102975.34;;;3.22;68.30
48968;BME280;46511;53.148;8.204;2023-01-28T01:30:46;102966.69;;;3.32;66.75
48968;BME280;46511;53.148;8.204;2023-01-28T01:33:17;102962.34;;;3.37;65.70
48968;BME280;46511;53.148;8.204;2023-01-28T01:35:43;102958.91;;;3.44;65.77
48968;BME280;46511;53.148;8.204;2023-01-28T01:38:15;102958.91;;;3.47;65.02
48968;BME280;46511;53.148;8.204;2023-01-28T01:40:46;102963.34;;;3.51;65.25
48968;BME280;46511;53.148;8.204;2023-01-28T01:43:18;102964.16;;;3.47;65.72
48968;BME280;46511;53.148;8.204;2023-01-28T01:45:52;102971.94;;;3.32;66.80
48968;BME280;46511;53.148;8.204;2023-01-28T01:48:29;102973.22;;;2.84;66.98
48968;BME280;46511;53.148;8.204;2023-01-28T01:51:05;102983.19;;;3.20;67.81
48968;BME280;46511;53.148;8.204;2023-01-28T01:53:40;102985.56;;;2.91;68.51
48968;BME280;46511;53.148;8.204;2023-01-28T01:56:16;102974.44;;;3.20;66.85
48968;BME280;46511;53.148;8.204;2023-01-28T01:58:51;102979.78;;;3.27;67.54
48968;BME280;46511;53.148;8.204;2023-01-28T02:01:27;102990.91;;;3.00;68.51
48968;BME280;46511;53.148;8.204;2023-01-28T02:04:05;102986.41;;;2.89;68.64
48968;BME280;46511;53.148;8.204;2023-01-28T02:06:42;102992.56;;;2.92;68.22
48968;BME280;46511;53.148;8.204;2023-01-28T02:09:24;102991.44;;;2.66;67.67
48968;BME280;46511;53.148;8.204;2023-01-28T02:11:58;102976.75;;;2.86;67.75
48968;BME280;46511;53.148;8.204;2023-01-28T02:14:34;102982.97;;;2.94;67.16
48968;BME280;46511;53.148;8.204;2023-01-28T02:17:11;102983.78;;;2.90;66.75
48968;BME280;46511;53.148;8.204;2023-01-28T02:19:45;102973.22;;;2.84;66.94
48968;BME280;46511;53.148;8.204;2023-01-28T02:25:57;102983.56;;;2.66;68.93
48968;BME280;46511;53.148;8.204;2023-01-28T02:28:57;102987.84;;;2.61;69.93
48968;BME280;46511;53.148;8.204;2023-01-28T02:31:44;102986.94;;;2.57;70.34
48968;BME280;46511;53.148;8.204;2023-01-28T02:34:46;102986.06;;;2.56;69.49
48968;BME280;46511;53.148;8.204;2023-01-28T02:37:23;102995.69;;;2.57;70.92
48968;BME280;46511;53.148;8.204;2023-01-28T02:40:00;102993.00;;;2.54;72.92
48968;BME280;46511;53.148;8.204;2023-01-28T02:42:31;102979.97;;;2.61;73.55
48968;BME280;46511;53.148;8.204;2023-01-28T02:45:12;102979.97;;;2.61;72.64
48968;BME280;46511;53.148;8.204;2023-01-28T02:47:51;102975.50;;;2.52;73.52
48968;BME280;46511;53.148;8.204;2023-01-28T02:50:30;102979.53;;;2.25;72.87
48968;BME280;46511;53.148;8.204;2023-01-28T02:53:23;102972.53;;;2.23;73.05
48968;BME280;46511;53.148;8.204;2023-01-28T02:59:43;102967.19;;;2.17;72.78
48968;BME280;46511;53.148;8.204;2023-01-28T03:02:19;102963.50;;;1.99;73.08
48968;BME280;46511;53.148;8.204;2023-01-28T03:05:11;102981.53;;;1.80;74.28
48968;BME280;46511;53.148;8.204;2023-01-28T03:07:50;102975.28;;;1.70;75.22
48968;BME280;46511;53.148;8.204;2023-01-28T03:10:24;102968.94;;;1.53;75.79
48968;BME280;46511;53.148;8.204;2023-01-28T03:12:58;102966.09;;;1.40;77.78
48968;BME280;46511;53.148;8.204;2023-01-28T03:15:48;102973.00;;;1.35;78.54
48968;BME280;46511;53.148;8.204;2023-01-28T03:18:40;102984.19;;;1.27;78.59
48968;BME280;46511;53.148;8.204;2023-01-28T03:21:40;102993.59;;;1.14;79.90
48968;BME280;46511;53.148;8.204;2023-01-28T03:24:37;102989.97;;;1.07;80.20
48968;BME280;46511;53.148;8.204;2023-01-28T03:27:33;102988.97;;;1.01;81.30
48968;BME280;46511;53.148;8.204;2023-01-28T03:30:36;102988.19;;;1.05;81.27
48968;BME280;46511;53.148;8.204;2023-01-28T03:33:31;102990.81;;;1.05;82.20
48968;BME280;46511;53.148;8.204;2023-01-28T03:36:24;102990.03;;;1.12;83.21
48968;BME280;46511;53.148;8.204;2023-01-28T03:39:14;102984.19;;;1.27;83.10
48968;BME280;46511;53.148;8.204;2023-01-28T03:41:54;102986.97;;;1.34;83.05
48968;BME280;46511;53.148;8.204;2023-01-28T03:44:33;102989.66;;;1.40;82.83
48968;BME280;46511;53.148;8.204;2023-01-28T03:47:25;102983.66;;;1.48;82.21
48968;BME280;46511;53.148;8.204;2023-01-28T03:49:57;102991.63;;;1.54;82.43
48968;BME280;46511;53.148;8.204;2023-01-28T03:52:30;102989.91;;;1.56;82.00
48968;BME280;46511;53.148;8.204;2023-01-28T03:55:02;102989.06;;;1.57;81.50
48968;BME280;46511;53.148;8.204;2023-01-28T03:57:38;102985.50;;;1.52;82.47
48968;BME280;46511;53.148;8.204;2023-01-28T04:00:10;102978.31;;;1.41;83.30
48968;BME280;46511;53.148;8.204;2023-01-28T04:02:41;102979.72;;;1.21;83.61
48968;BME280;46511;53.148;8.204;2023-01-28T04:05:13;102968.06;;;1.02;84.15
48968;BME280;46511;53.148;8.204;2023-01-28T04:07:49;102973.91;;;0.86;85.02
48968;BME280;46511;53.148;8.204;2023-01-28T04:10:23;102976.38;;;0.78;85.61
48968;BME280;46511;53.148;8.204;2023-01-28T04:12:55;102989.31;;;0.72;86.56
48968;BME280;46511;53.148;8.204;2023-01-28T04:15:26;102975.28;;;0.67;87.57
48968;BME280;46511;53.148;8.204;2023-01-28T04:17:57;102984.56;;;0.51;88.65
48968;BME280;46511;53.148;8.204;2023-01-28T04:20:30;102985.28;;;0.44;88.75
48968;BME280;46511;53.148;8.204;2023-01-28T04:23:02;102992.97;;;0.37;88.57
48968;BME280;46511;53.148;8.204;2023-01-28T04:25:34;102978.81;;;0.27;89.17
48968;BME280;46511;53.148;8.204;2023-01-28T04:28:05;102983.97;;;0.22;89.86
48968;BME280;46511;53.148;8.204;2023-01-28T04:30:37;102992.00;;;0.32;91.02
48968;BME280;46511;53.148;8.204;2023-01-28T04:33:08;102983.34;;;0.36;91.47
48968;BME280;46511;53.148;8.204;2023-01-28T04:35:40;102986.06;;;0.39;92.98
48968;BME280;46511;53.148;8.204;2023-01-28T04:38:11;102980.84;;;0.40;93.63
48968;BME280;46511;53.148;8.204;2023-01-28T04:40:37;102991.34;;;0.43;93.05
48968;BME280;46511;53.148;8.204;2023-01-28T04:43:08;102988.72;;;0.42;92.89
48968;BME280;46511;53.148;8.204;2023-01-28T04:45:40;102983.72;;;0.54;93.48
48968;BME280;46511;53.148;8.204;2023-01-28T04:48:11;102993.41;;;0.58;93.92
48968;BME280;46511;53.148;8.204;2023-01-28T04:50:44;102984.88;;;0.67;93.72
48968;BME280;46511;53.148;8.204;2023-01-28T04:53:15;102980.63;;;0.73;93.87
48968;BME280;46511;53.148;8.204;2023-01-28T04:55:46;102981.47;;;0.72;93.80
48968;BME280;46511;53.148;8.204;2023-01-28T04:58:18;102986.84;;;0.80;93.34
48968;BME280;46511;53.148;8.204;2023-01-28T05:00:53;102980.81;;;0.84;93.53
48968;BME280;46511;53.148;8.204;2023-01-28T05:03:26;102974.88;;;0.93;92.59
48968;BME280;46511;53.148;8.204;2023-01-28T05:05:58;102967.03;;;0.93;91.79
48968;BME280;46511;53.148;8.204;2023-01-28T05:08:29;102951.22;;;0.87;91.85
48968;BME280;46511;53.148;8.204;2023-01-28T05:11:00;102944.00;;;0.73;92.37
48968;BME280;46511;53.148;8.204;2023-01-28T05:13:31;102955.34;;;0.74;92.50
48968;BME280;46511;53.148;8.204;2023-01-28T05:16:03;102957.88;;;0.69;91.51
48968;BME280;46511;53.148;8.204;2023-01-28T05:18:34;102955.09;;;0.60;91.78
48968;BME280;46511;53.148;8.204;2023-01-28T05:21:00;102952.53;;;0.63;91.92
48968;BME280;46511;53.148;8.204;2023-01-28T05:23:32;102944.59;;;0.59;92.60
48968;BME280;46511;53.148;8.204;2023-01-28T05:26:03;102951.47;;;0.53;92.11
48968;BME280;46511;53.148;8.204;2023-01-28T05:28:35;102946.88;;;0.42;91.88
48968;BME280;46511;53.148;8.204;2023-01-28T05:31:06;102940.59;;;0.32;91.52
48968;BME280;46511;53.148;8.204;2023-01-28T05:33:38;102943.03;;;0.24;92.21
48968;BME280;46511;53.148;8.204;2023-01-28T05:36:09;102934.31;;;0.22;92.83
48968;BME280;46511;53.148;8.204;2023-01-28T05:38:40;102939.47;;;0.19;93.43
48968;BME280;46511;53.148;8.204;2023-01-28T05:41:12;102942.13;;;0.21;93.32
48968;BME280;46511;53.148;8.204;2023-01-28T05:43:43;102942.13;;;0.22;93.72
48968;BME280;46511;53.148;8.204;2023-01-28T05:46:14;102948.28;;;0.24;93.22
48968;BME280;46511;53.148;8.204;2023-01-28T05:48:45;102944.81;;;0.25;93.05
48968;BME280;46511;53.148;8.204;2023-01-28T05:51:17;102944.94;;;0.32;93.86
48968;BME280;46511;53.148;8.204;2023-01-28T05:53:48;102940.81;;;0.44;93.82
48968;BME280;46511;53.148;8.204;2023-01-28T05:56:19;102938.13;;;0.40;93.46
48968;BME280;46511;53.148;8.204;2023-01-28T05:58:50;102931.06;;;0.36;93.89
48968;BME280;46511;53.148;8.204;2023-01-28T06:01:22;102934.75;;;0.45;93.76
48968;BME280;46511;53.148;8.204;2023-01-28T06:03:53;102936.59;;;0.49;92.89
48968;BME280;46511;53.148;8.204;2023-01-28T06:06:24;102945.19;;;0.44;92.13
48968;BME280;46511;53.148;8.204;2023-01-28T06:08:56;102946.84;;;0.39;92.47
48968;BME280;46511;53.148;8.204;2023-01-28T06:11:27;102939.69;;;0.30;92.07
48968;BME280;46511;53.148;8.204;2023-01-28T06:13:58;102936.03;;;0.22;92.69
48968;BME280;46511;53.148;8.204;2023-01-28T06:16:29;102937.69;;;0.18;93.77
48968;BME280;46511;53.148;8.204;2023-01-28T06:19:01;102940.19;;;0.12;94.20
48968;BME280;46511;53.148;8.204;2023-01-28T06:21:32;102943.50;;;0.05;94.08
48968;BME280;46511;53.148;8.204;2023-01-28T06:24:04;102940.00;;;0.03;94.67
48968;BME280;46511;53.148;8.204;2023-01-28T06:26:35;102937.31;;;0.00;94.74
48968;BME280;46511;53.148;8.204;2023-01-28T06:29:07;102930.31;;;-0.01;95.36
48968;BME280;46511;53.148;8.204;2023-01-28T06:31:38;102930.38;;;0.01;95.39
48968;BME280;46511;53.148;8.204;2023-01-28T06:34:09;102945.22;;;0.03;95.20
48968;BME280;46511;53.148;8.204;2023-01-28T06:36:40;102944.50;;;0.10;95.51
48968;BME280;46511;53.148;8.204;2023-01-28T06:39:12;102938.31;;;0.07;95.55
48968;BME280;46511;53.148;8.204;2023-01-28T06:41:43;102947.84;;;0.03;95.11
48968;BME280;46511;53.148;8.204;2023-01-28T06:44:14;102946.78;;;-0.05;95.45
48968;BME280;46511;53.148;8.204;2023-01-28T06:46:46;102954.63;;;-0.05;95.70
48968;BME280;46511;53.148;8.204;2023-01-28T06:49:17;102951.22;;;-0.01;96.19
48968;BME280;46511;53.148;8.204;2023-01-28T06:51:49;102948.50;;;-0.06;96.34
48968;BME280;46511;53.148;8.204;2023-01-28T06:54:20;102960.69;;;-0.06;95.94
48968;BME280;46511;53.148;8.204;2023-01-28T06:56:51;102964.91;;;-0.11;95.58
48968;BME280;46511;53.148;8.204;2023-01-28T06:59:22;102950.75;;;-0.22;95.47
48968;BME280;46511;53.148;8.204;2023-01-28T07:01:54;102947.16;;;-0.27;95.81
48968;BME280;46511;53.148;8.204;2023-01-28T07:04:25;102955.75;;;-0.32;97.21
48968;BME280;46511;53.148;8.204;2023-01-28T07:06:56;102971.69;;;-0.19;97.80
48968;BME280;46511;53.148;8.204;2023-01-28T07:09:27;102974.28;;;-0.21;97.60
48968;BME280;46511;53.148;8.204;2023-01-28T07:11:59;102968.34;;;-0.15;98.49
48968;BME280;46511;53.148;8.204;2023-01-28T07:14:30;102971.97;;;-0.09;97.80
48968;BME280;46511;53.148;8.204;2023-01-28T07:17:01;102980.81;;;-0.02;97.04
48968;BME280;46511;53.148;8.204;2023-01-28T07:19:33;102987.06;;;0.05;96.59
48968;BME280;46511;53.148;8.204;2023-01-28T07:22:04;102982.75;;;0.08;96.79
48968;BME280;46511;53.148;8.204;2023-01-28T07:24:35;102992.69;;;0.23;97.00
48968;BME280;46511;53.148;8.204;2023-01-28T07:27:06;102992.09;;;0.38;96.08
48968;BME280;46511;53.148;8.204;2023-01-28T07:29:38;102995.84;;;0.49;95.90
48968;BME280;46511;53.148;8.204;2023-01-28T07:32:09;103003.19;;;0.68;94.70
48968;BME280;46511;53.148;8.204;2023-01-28T07:34:40;103002.69;;;0.86;93.89
48968;BME280;46511;53.148;8.204;2023-01-28T07:37:13;103006.41;;;0.99;92.39
48968;BME280;46511;53.148;8.204;2023-01-28T07:39:44;103003.94;;;1.08;91.23
48968;BME280;46511;53.148;8.204;2023-01-28T07:42:16;103007.66;;;1.22;90.38
48968;BME280;46511;53.148;8.204;2023-01-28T07:44:47;103013.31;;;1.45;89.61
48968;BME280;46511;53.148;8.204;2023-01-28T07:47:19;103023.94;;;1.53;88.27
48968;BME280;46511;53.148;8.204;2023-01-28T07:49:51;103023.13;;;1.58;87.68
48968;BME280;46511;53.148;8.204;2023-01-28T07:52:22;103016.22;;;1.62;87.10
48968;BME280;46511;53.148;8.204;2023-01-28T07:54:53;103018.72;;;1.56;86.55
48968;BME280;46511;53.148;8.204;2023-01-28T07:57:24;103022.09;;;1.49;86.53
48968;BME280;46511;53.148;8.204;2023-01-28T07:59:56;103015.09;;;1.48;86.30
48968;BME280;46511;53.148;8.204;2023-01-28T08:02:27;103000.22;;;1.43;87.14
48968;BME280;46511;53.148;8.204;2023-01-28T08:05:00;103007.09;;;1.40;86.76
48968;BME280;46511;53.148;8.204;2023-01-28T08:07:31;103007.91;;;1.34;87.23
48968;BME280;46511;53.148;8.204;2023-01-28T08:10:02;103009.66;;;1.35;87.48
48968;BME280;46511;53.148;8.204;2023-01-28T08:12:34;103007.34;;;1.52;87.11
48968;BME280;46511;53.148;8.204;2023-01-28T08:15:05;103004.03;;;1.65;86.79
48968;BME280;46511;53.148;8.204;2023-01-28T08:17:37;103007.94;;;1.90;85.96
48968;BME280;46511;53.148;8.204;2023-01-28T08:20:08;103005.50;;;3.69;83.03
48968;BME280;46511;53.148;8.204;2023-01-28T08:22:40;103002.03;;;8.17;67.46
48968;BME280;46511;53.148;8.204;2023-01-28T08:25:11;102999.16;;;10.93;51.44
48968;BME280;46511;53.148;8.204;2023-01-28T08:27:43;103000.00;;;11.32;44.79
48968;BME280;46511;53.148;8.204;2023-01-28T08:30:14;102995.78;;;12.84;43.10
48968;BME280;46511;53.148;8.204;2023-01-28T08:32:45;102988.91;;;15.47;36.33
48968;BME280;46511;53.148;8.204;2023-01-28T08:35:17;102988.53;;;16.75;34.34
48968;BME280;46511;53.148;8.204;2023-01-28T08:37:48;102985.88;;;16.55;31.69
48968;BME280;46511;53.148;8.204;2023-01-28T08:40:19;102986.78;;;16.93;30.55
48968;BME280;46511;53.148;8.204;2023-01-28T08:42:52;102982.63;;;17.58;30.52
48968;BME280;46511;53.148;8.204;2023-01-28T08:45:24;102980.34;;;18.03;30.13
48968;BME280;46511;53.148;8.204;2023-01-28T08:47:58;102997.41;;;16.77;30.09
48968;BME280;46511;53.148;8.204;2023-01-28T08:50:35;103002.81;;;15.97;30.83
48968;BME280;46511;53.148;8.204;2023-01-28T08:53:12;103011.19;;;14.82;31.42
48968;BME280;46511;53.148;8.204;2023-01-28T08:55:45;103021.97;;;12.41;36.74
48968;BME280;46511;53.148;8.204;2023-01-28T08:58:17;103031.09;;;14.51;35.97
48968;BME280;46511;53.148;8.204;2023-01-28T09:00:49;103028.72;;;17.68;31.61
48968;BME280;46511;53.148;8.204;2023-01-28T09:03:20;103028.28;;;17.77;29.91
48968;BME280;46511;53.148;8.204;2023-01-28T09:05:52;103033.63;;;18.12;28.34
48968;BME280;46511;53.148;8.204;2023-01-28T09:08:23;103030.09;;;19.09;26.77
48968;BME280;46511;53.148;8.204;2023-01-28T09:10:58;103036.94;;;16.53;29.21
48968;BME280;46511;53.148;8.204;2023-01-28T09:13:30;103050.69;;;14.52;32.27
48968;BME280;46511;53.148;8.204;2023-01-28T09:16:03;103049.84;;;10.85;38.69
48968;BME280;46511;53.148;8.204;2023-01-28T09:18:35;103053.22;;;8.14;44.28
48968;BME280;46511;53.148;8.204;2023-01-28T09:21:07;103053.84;;;7.45;46.77
48968;BME280;46511;53.148;8.204;2023-01-28T09:23:38;103067.47;;;6.83;49.76
48968;BME280;46511;53.148;8.204;2023-01-28T09:26:10;103069.81;;;7.35;49.56
48968;BME280;46511;53.148;8.204;2023-01-28T09:28:41;103070.16;;;6.69;50.14
48968;BME280;46511;53.148;8.204;2023-01-28T09:31:12;103071.06;;;6.61;52.19
48968;BME280;46511;53.148;8.204;2023-01-28T09:33:45;103075.47;;;6.58;51.90
48968;BME280;46511;53.148;8.204;2023-01-28T09:36:18;103067.56;;;6.55;51.74
48968;BME280;46511;53.148;8.204;2023-01-28T09:38:49;103065.03;;;5.32;56.03
48968;BME280;46511;53.148;8.204;2023-01-28T09:46:59;103064.53;;;7.29;51.19
48968;BME280;46511;53.148;8.204;2023-01-28T09:49:36;103059.59;;;7.98;50.22
48968;BME280;46511;53.148;8.204;2023-01-28T09:52:16;103063.47;;;8.51;48.92
48968;BME280;46511;53.148;8.204;2023-01-28T09:54:54;103055.81;;;9.56;45.47
48968;BME280;46511;53.148;8.204;2023-01-28T09:57:51;103056.84;;;14.77;36.45
48968;BME280;46511;53.148;8.204;2023-01-28T10:01:24;103049.00;;;15.84;31.44
48968;BME280;46511;53.148;8.204;2023-01-28T10:16:02;103046.34;;;10.83;39.26
48968;BME280;46511;53.148;8.204;2023-01-28T10:18:27;103034.00;;;12.55;37.51
48968;BME280;46511;53.148;8.204;2023-01-28T10:21:06;103035.69;;;13.71;35.14
48968;BME280;46511;53.148;8.204;2023-01-28T10:23:45;103028.41;;;14.51;33.24
48968;BME280;46511;53.148;8.204;2023-01-28T10:26:24;103011.41;;;17.20;29.75
48968;BME280;46511;53.148;8.204;2023-01-28T10:29:02;103013.06;;;17.23;29.01
48968;BME280;46511;53.148;8.204;2023-01-28T10:31:43;103007.22;;;18.03;28.49
48968;BME280;46511;53.148;8.204;2023-01-28T10:34:22;102992.06;;;19.45;26.83
48968;BME280;46511;53.148;8.204;2023-01-28T10:36:53;102982.97;;;20.06;24.84
48968;BME280;46511;53.148;8.204;2023-01-28T10:39:26;102987.06;;;20.97;24.41
48968;BME280;46511;53.148;8.204;2023-01-28T10:41:59;102990.91;;;18.72;25.82
48968;BME280;46511;53.148;8.204;2023-01-28T10:44:34;102997.75;;;14.12;31.85
48968;BME280;46511;53.148;8.204;2023-01-28T10:47:14;102983.34;;;11.59;37.02
48968;BME280;46511;53.148;8.204;2023-01-28T10:49:55;102986.69;;;10.95;39.02
48968;BME280;46511;53.148;8.204;2023-01-28T10:52:29;102983.34;;;10.46;40.40
48968;BME280;46511;53.148;8.204;2023-01-28T10:55:01;102977.13;;;9.53;42.85
48968;BME280;46511;53.148;8.204;2023-01-28T10:57:34;102978.31;;;9.35;44.52
48968;BME280;46511;53.148;8.204;2023-01-28T11:00:21;102972.34;;;8.64;45.46
48968;BME280;46511;53.148;8.204;2023-01-28T11:02:54;102965.81;;;10.78;43.06
48968;BME280;46511;53.148;8.204;2023-01-28T11:05:28;102951.94;;;15.55;33.79
48968;BME280;46511;53.148;8.204;2023-01-28T11:10:41;102915.31;;;19.06;27.45
48968;BME280;46511;53.148;8.204;2023-01-28T11:15:53;102894.16;;;16.28;29.24
48968;BME280;46511;53.148;8.204;2023-01-28T11:18:37;102888.53;;;14.93;31.05
48968;BME280;46511;53.148;8.204;2023-01-28T11:21:17;102899.22;;;17.60;28.41
48968;BME280;46511;53.148;8.204;2023-01-28T11:23:52;102890.84;;;18.32;27.58
48968;BME280;46511;53.148;8.204;2023-01-28T11:26:28;102895.88;;;18.38;26.99
48968;BME280;46511;53.148;8.204;2023-01-28T11:29:03;102906.31;;;18.76;26.62
48968;BME280;46511;53.148;8.204;2023-01-28T11:31:36;102907.44;;;17.22;28.08
48968;BME280;46511;53.148;8.204;2023-01-28T11:34:15;102922.78;;;16.84;29.43
48968;BME280;46511;53.148;8.204;2023-01-28T11:36:49;102917.34;;;18.87;27.09
48968;BME280;46511;53.148;8.204;2023-01-28T11:39:34;102913.13;;;21.25;23.40
48968;BME280;46511;53.148;8.204;2023-01-28T11:42:18;102929.41;;;19.72;26.01
48968;BME280;46511;53.148;8.204;2023-01-28T11:44:50;102934.69;;;23.15;22.03
48968;BME280;46511;53.148;8.204;2023-01-28T11:47:32;102937.84;;;21.46;23.11
48968;BME280;46511;53.148;8.204;2023-01-28T11:53:11;102936.00;;;16.89;29.31
48968;BME280;46511;53.148;8.204;2023-01-28T11:58:55;102919.56;;;20.13;25.38
48968;BME280;46511;53.148;8.204;2023-01-28T12:04:25;102907.94;;;18.94;25.79
48968;BME280;46511;53.148;8.204;2023-01-28T12:09:55;102908.63;;;21.11;24.04
48968;BME280;46511;53.148;8.204;2023-01-28T12:12:42;102907.34;;;18.42;26.95
48968;BME280;46511;53.148;8.204;2023-01-28T12:15:25;102899.00;;;18.31;27.71
48968;BME280;46511;53.148;8.204;2023-01-28T12:24:47;102901.94;;;11.51;39.32
48968;BME280;46511;53.148;8.204;2023-01-28T12:33:21;102886.94;;;9.04;45.88
48968;BME280;46511;53.148;8.204;2023-01-28T12:41:33;102868.91;;;8.09;51.73
48968;BME280;46511;53.148;8.204;2023-01-28T12:44:13;102862.28;;;7.72;52.20
48968;BME280;46511;53.148;8.204;2023-01-28T12:46:59;102860.97;;;7.32;54.34
48968;BME280;46511;53.148;8.204;2023-01-28T12:52:19;102866.31;;;8.02;54.85
48968;BME280;46511;53.148;8.204;2023-01-28T12:57:57;102868.81;;;8.13;52.46
48968;BME280;46511;53.148;8.204;2023-01-28T13:03:08;102860.72;;;8.85;51.78
48968;BME280;46511;53.148;8.204;2023-01-28T13:05:37;102846.63;;;8.83;51.33
48968;BME280;46511;53.148;8.204;2023-01-28T13:08:19;102844.88;;;8.22;51.93
48968;BME280;46511;53.148;8.204;2023-01-28T13:10:55;102846.56;;;8.28;52.83
48968;BME280;46511;53.148;8.204;2023-01-28T13:13:32;102858.47;;;7.96;53.58
48968;BME280;46511;53.148;8.204;2023-01-28T13:16:08;102865.72;;;7.79;55.87
48968;BME280;46511;53.148;8.204;2023-01-28T13:18:44;102865.19;;;8.83;53.11
48968;BME280;46511;53.148;8.204;2023-01-28T13:29:31;102857.63;;;15.88;33.99
48968;BME280;46511;53.148;8.204;2023-01-28T13:32:24;102856.38;;;19.30;29.72
48968;BME280;46511;53.148;8.204;2023-01-28T13:34:58;102855.16;;;16.40;32.69
48968;BME280;46511;53.148;8.204;2023-01-28T13:37:42;102858.44;;;15.49;34.96
48968;BME280;46511;53.148;8.204;2023-01-28T13:42:55;102864.56;;;12.73;40.33
48968;BME280;46511;53.148;8.204;2023-01-28T13:45:29;102859.81;;;11.66;42.09
48968;BME280;46511;53.148;8.204;2023-01-28T13:50:56;102862.34;;;9.88;48.77
48968;BME280;46511;53.148;8.204;2023-01-28T13:56:21;102852.38;;;9.58;49.74
48968;BME280;46511;53.148;8.204;2023-01-28T13:59:09;102857.88;;;9.45;50.75
48968;BME280;46511;53.148;8.204;2023-01-28T14:04:34;102856.41;;;8.78;53.93
48968;BME280;46511;53.148;8.204;2023-01-28T14:07:33;102851.94;;;8.83;53.85
48968;BME280;46511;53.148;8.204;2023-01-28T14:10:29;102857.28;;;8.79;53.72
48968;BME280;46511;53.148;8.204;2023-01-28T14:19:14;102873.44;;;8.62;55.85
48968;BME280;46511;53.148;8.204;2023-01-28T14:21:46;102877.34;;;8.34;58.13
48968;BME280;46511;53.148;8.204;2023-01-28T14:24:17;102868.41;;;7.78;59.18
48968;BME280;46511;53.148;8.204;2023-01-28T14:32:21;102866.41;;;7.96;59.81
48968;BME280;46511;53.148;8.204;2023-01-28T14:34:59;102849.69;;;7.10;63.71
48968;BME280;46511;53.148;8.204;2023-01-28T14:37:37;102860.81;;;7.44;63.20
48968;BME280;46511;53.148;8.204;2023-01-28T14:40:12;102855.94;;;7.87;61.93
48968;BME280;46511;53.148;8.204;2023-01-28T14:42:47;102869.50;;;7.58;62.26
48968;BME280;46511;53.148;8.204;2023-01-28T14:48:07;102896.97;;;7.43;64.45
48968;BME280;46511;53.148;8.204;2023-01-28T14:56:39;102900.19;;;6.72;67.40
48968;BME280;46511;53.148;8.204;2023-01-28T14:59:27;102889.53;;;6.87;68.24
48968;BME280;46511;53.148;8.204;2023-01-28T15:02:14;102878.75;;;7.14;67.02
48968;BME280;46511;53.148;8.204;2023-01-28T15:04:49;102887.69;;;6.97;67.72
48968;BME280;46511;53.148;8.204;2023-01-28T15:10:04;102911.50;;;6.95;67.55
48968;BME280;46511;53.148;8.204;2023-01-28T15:12:38;102898.47;;;6.74;70.22
48968;BME280;46511;53.148;8.204;2023-01-28T15:17:52;102893.84;;;6.99;69.34
48968;BME280;46511;53.148;8.204;2023-01-28T15:20:24;102891.19;;;7.02;69.50
48968;BME280;46511;53.148;8.204;2023-01-28T15:22:55;102884.13;;;7.05;69.56
48968;BME280;46511;53.148;8.204;2023-01-28T15:25:27;102886.78;;;7.01;70.08
48968;BME280;46511;53.148;8.204;2023-01-28T15:28:00;102891.91;;;7.21;68.62
48968;BME280;46511;53.148;8.204;2023-01-28T15:30:28;102896.56;;;6.88;69.76
48968;BME280;46511;53.148;8.204;2023-01-28T15:33:08;102886.69;;;7.13;68.97